sensor_id;sensor_type;location;lat;lon;timestamp;P1;durP1;ratioP1;P2;durP2;ratioP2
73816;SDS011;62146;53.232;-1.304;2022-12-18T00:01:20;12.45;;;6.93;;
73816;SDS011;62146;53.232;-1.304;2022-12-18T00:03:48;13.75;;;7.15;;
73816;SDS011;62146;53.232;-1.304;2022-12-18T00:06:15;12.02;;;7.03;;
73816;SDS011;62146;53.232;-1.304;2022-12-18T00:08:43;15.40;;;7.70;;
73816;SDS011;62146;53.232;-1.304;2022-12-18T00:11:12;12.13;;;7.10;;
73816;SDS011;62146;53.232;-1.304;2022-12-18T00:13:43;12.93;;;6.93;;
73816;SDS011;62146;53.232;-1.304;2022-12-18T00:16:11;12.90;;;6.82;;
73816;SDS011;62146;53.232;-1.304;2022-12-18T00:18:39;12.82;;;6.75;;
73816;SDS011;62146;53.232;-1.304;2022-12-18T00:21:07;13.40;;;7.28;;
73816;SDS011;62146;53.232;-1.304;2022-12-18T00:23:35;11.93;;;6.73;;
73816;SDS011;62146;53.232;-1.304;2022-12-18T00:26:10;15.07;;;7.35;;
73816;SDS011;62146;53.232;-1.304;2022-12-18T00:28:38;14.70;;;6.55;;
73816;SDS011;62146;53.232;-1.304;2022-12-18T00:31:06;14.20;;;6.78;;
73816;SDS011;62146;53.232;-1.304;2022-12-18T00:33:37;13.55;;;7.18;;
73816;SDS011;62146;53.232;-1.304;2022-12-18T00:36:27;14.63;;;7.47;;
73816;SDS011;62146;53.232;-1.304;2022-12-18T00:38:54;15.57;;;7.32;;
73816;SDS011;62146;53.232;-1.304;2022-12-18T00:41:21;12.32;;;7.03;;
73816;SDS011;62146;53.232;-1.304;2022-12-18T00:44:08;11.60;;;6.72;;
73816;SDS011;62146;53.232;-1.304;2022-12-18T00:46:37;16.52;;;6.40;;
73816;SDS011;62146;53.232;-1.304;2022-12-18T00:49:04;15.57;;;7.63;;
73816;SDS011;62146;53.232;-1.304;2022-12-18T00:51:31;13.73;;;6.75;;
73816;SDS011;62146;53.232;-1.304;2022-12-18T00:53:58;12.32;;;6.72;;
73816;SDS011;62146;53.232;-1.304;2022-12-18T00:56:24;14.25;;;7.20;;
73816;SDS011;62146;53.232;-1.304;2022-12-18T00:58:51;14.68;;;7.88;;
73816;SDS011;62146;53.232;-1.304;2022-12-18T01:01:18;14.83;;;6.77;;
73816;SDS011;62146;53.232;-1.304;2022-12-18T01:03:46;14.98;;;7.10;;
73816;SDS011;62146;53.232;-1.304;2022-12-18T01:06:13;14.35;;;7.78;;
73816;SDS011;62146;53.232;-1.304;2022-12-18T01:08:41;13.00;;;6.70;;
73816;SDS011;62146;53.232;-1.304;2022-12-18T01:11:09;13.20;;;7.43;;
73816;SDS011;62146;53.232;-1.304;2022-12-18T01:13:38;13.07;;;7.10;;
73816;SDS011;62146;53.232;-1.304;2022-12-18T01:16:06;13.13;;;7.13;;
73816;SDS011;62146;53.232;-1.304;2022-12-18T01:18:33;13.10;;;7.25;;
73816;SDS011;62146;53.232;-1.304;2022-12-18T01:20:59;11.68;;;6.85;;
73816;SDS011;62146;53.232;-1.304;2022-12-18T01:23:26;13.40;;;6.68;;
73816;SDS011;62146;53.232;-1.304;2022-12-18T01:25:52;12.77;;;7.00;;
73816;SDS011;62146;53.232;-1.304;2022-12-18T01:28:19;15.32;;;7.18;;
73816;SDS011;62146;53.232;-1.304;2022-12-18T01:30:45;12.98;;;7.22;;
73816;SDS011;62146;53.232;-1.304;2022-12-18T01:33:12;14.07;;;7.40;;
73816;SDS011;62146;53.232;-1.304;2022-12-18T01:35:42;13.50;;;6.75;;
73816;SDS011;62146;53.232;-1.304;2022-12-18T01:38:09;12.37;;;6.57;;
73816;SDS011;62146;53.232;-1.304;2022-12-18T01:40:36;13.73;;;6.93;;
73816;SDS011;62146;53.232;-1.304;2022-12-18T01:43:02;14.35;;;7.53;;
73816;SDS011;62146;53.232;-1.304;2022-12-18T01:45:30;14.25;;;6.80;;
73816;SDS011;62146;53.232;-1.304;2022-12-18T01:47:59;13.60;;;7.05;;
73816;SDS011;62146;53.232;-1.304;2022-12-18T01:50:30;14.20;;;7.30;;
73816;SDS011;62146;53.232;-1.304;2022-12-18T01:55:31;16.75;;;7.93;;
73816;SDS011;62146;53.232;-1.304;2022-12-18T01:58:02;14.73;;;7.43;;
73816;SDS011;62146;53.232;-1.304;2022-12-18T02:00:29;13.07;;;7.20;;
73816;SDS011;62146;53.232;-1.304;2022-12-18T02:02:56;13.33;;;7.20;;
73816;SDS011;62146;53.232;-1.304;2022-12-18T02:05:29;14.52;;;7.70;;
73816;SDS011;62146;53.232;-1.304;2022-12-18T02:08:22;13.88;;;7.57;;
73816;SDS011;62146;53.232;-1.304;2022-12-18T02:19:45;14.45;;;8.35;;
73816;SDS011;62146;53.232;-1.304;2022-12-18T02:27:42;14.45;;;7.45;;
73816;SDS011;62146;53.232;-1.304;2022-12-18T02:30:13;16.07;;;7.77;;
73816;SDS011;62146;53.232;-1.304;2022-12-18T02:32:42;18.60;;;9.30;;
73816;SDS011;62146;53.232;-1.304;2022-12-18T02:35:13;19.05;;;8.68;;
73816;SDS011;62146;53.232;-1.304;2022-12-18T02:37:43;18.70;;;8.75;;
73816;SDS011;62146;53.232;-1.304;2022-12-18T02:40:13;19.17;;;9.07;;
73816;SDS011;62146;53.232;-1.304;2022-12-18T02:42:42;19.37;;;8.60;;
73816;SDS011;62146;53.232;-1.304;2022-12-18T02:45:09;19.80;;;9.10;;
73816;SDS011;62146;53.232;-1.304;2022-12-18T02:47:38;19.55;;;9.50;;
73816;SDS011;62146;53.232;-1.304;2022-12-18T02:50:26;19.40;;;8.27;;
73816;SDS011;62146;53.232;-1.304;2022-12-18T02:53:14;18.10;;;8.88;;
73816;SDS011;62146;53.232;-1.304;2022-12-18T03:01:16;16.73;;;8.82;;
73816;SDS011;62146;53.232;-1.304;2022-12-18T03:03:59;19.95;;;9.32;;
73816;SDS011;62146;53.232;-1.304;2022-12-18T03:06:32;20.77;;;9.80;;
73816;SDS011;62146;53.232;-1.304;2022-12-18T03:09:07;22.20;;;10.67;;
73816;SDS011;62146;53.232;-1.304;2022-12-18T03:11:37;25.52;;;10.88;;
73816;SDS011;62146;53.232;-1.304;2022-12-18T03:14:26;19.65;;;9.20;;
73816;SDS011;62146;53.232;-1.304;2022-12-18T03:16:59;20.63;;;9.82;;
73816;SDS011;62146;53.232;-1.304;2022-12-18T03:19:31;21.75;;;10.13;;
73816;SDS011;62146;53.232;-1.304;2022-12-18T03:22:00;24.77;;;10.87;;
73816;SDS011;62146;53.232;-1.304;2022-12-18T03:24:30;21.67;;;10.93;;
73816;SDS011;62146;53.232;-1.304;2022-12-18T03:26:59;21.90;;;10.88;;
73816;SDS011;62146;53.232;-1.304;2022-12-18T03:32:12;19.88;;;10.55;;
73816;SDS011;62146;53.232;-1.304;2022-12-18T03:34:44;21.57;;;10.97;;
73816;SDS011;62146;53.232;-1.304;2022-12-18T03:37:16;22.35;;;10.43;;
73816;SDS011;62146;53.232;-1.304;2022-12-18T03:39:43;16.45;;;9.48;;
73816;SDS011;62146;53.232;-1.304;2022-12-18T03:42:17;22.70;;;10.25;;
73816;SDS011;62146;53.232;-1.304;2022-12-18T03:44:56;20.80;;;10.82;;
73816;SDS011;62146;53.232;-1.304;2022-12-18T03:47:31;19.47;;;9.73;;
73816;SDS011;62146;53.232;-1.304;2022-12-18T03:55:26;18.13;;;9.45;;
73816;SDS011;62146;53.232;-1.304;2022-12-18T03:57:57;21.45;;;10.15;;
73816;SDS011;62146;53.232;-1.304;2022-12-18T04:00:25;19.30;;;9.37;;
73816;SDS011;62146;53.232;-1.304;2022-12-18T04:02:54;18.05;;;9.07;;
73816;SDS011;62146;53.232;-1.304;2022-12-18T04:05:23;19.65;;;9.38;;
73816;SDS011;62146;53.232;-1.304;2022-12-18T04:07:52;19.05;;;8.77;;
73816;SDS011;62146;53.232;-1.304;2022-12-18T04:10:20;18.95;;;9.70;;
73816;SDS011;62146;53.232;-1.304;2022-12-18T04:12:46;16.37;;;8.57;;
73816;SDS011;62146;53.232;-1.304;2022-12-18T04:15:13;17.63;;;9.23;;
73816;SDS011;62146;53.232;-1.304;2022-12-18T04:17:43;20.02;;;9.48;;
73816;SDS011;62146;53.232;-1.304;2022-12-18T04:20:14;21.38;;;9.65;;
73816;SDS011;62146;53.232;-1.304;2022-12-18T04:22:41;17.77;;;9.05;;
73816;SDS011;62146;53.232;-1.304;2022-12-18T04:25:07;18.77;;;9.63;;
73816;SDS011;62146;53.232;-1.304;2022-12-18T04:27:34;21.13;;;9.43;;
73816;SDS011;62146;53.232;-1.304;2022-12-18T04:30:01;19.48;;;9.60;;
73816;SDS011;62146;53.232;-1.304;2022-12-18T04:32:28;18.48;;;9.52;;
73816;SDS011;62146;53.232;-1.304;2022-12-18T04:34:55;20.20;;;9.40;;
73816;SDS011;62146;53.232;-1.304;2022-12-18T04:37:21;20.07;;;9.40;;
73816;SDS011;62146;53.232;-1.304;2022-12-18T04:39:48;19.85;;;9.48;;
73816;SDS011;62146;53.232;-1.304;2022-12-18T04:42:14;21.63;;;9.43;;
73816;SDS011;62146;53.232;-1.304;2022-12-18T04:44:41;19.90;;;9.05;;
73816;SDS011;62146;53.232;-1.304;2022-12-18T04:47:07;21.25;;;10.35;;
73816;SDS011;62146;53.232;-1.304;2022-12-18T04:49:34;19.37;;;9.33;;
73816;SDS011;62146;53.232;-1.304;2022-12-18T04:52:00;22.83;;;10.65;;
73816;SDS011;62146;53.232;-1.304;2022-12-18T04:54:27;24.38;;;10.25;;
73816;SDS011;62146;53.232;-1.304;2022-12-18T04:56:53;22.73;;;10.35;;
73816;SDS011;62146;53.232;-1.304;2022-12-18T04:59:20;21.38;;;11.25;;
73816;SDS011;62146;53.232;-1.304;2022-12-18T05:01:47;25.60;;;10.93;;
73816;SDS011;62146;53.232;-1.304;2022-12-18T05:04:13;21.90;;;11.10;;
73816;SDS011;62146;53.232;-1.304;2022-12-18T05:06:40;25.05;;;10.70;;
73816;SDS011;62146;53.232;-1.304;2022-12-18T05:09:06;21.75;;;11.07;;
73816;SDS011;62146;53.232;-1.304;2022-12-18T05:11:36;24.00;;;11.80;;
73816;SDS011;62146;53.232;-1.304;2022-12-18T05:14:03;27.07;;;11.23;;
73816;SDS011;62146;53.232;-1.304;2022-12-18T05:16:29;24.45;;;11.57;;
73816;SDS011;62146;53.232;-1.304;2022-12-18T05:18:56;27.00;;;11.85;;
73816;SDS011;62146;53.232;-1.304;2022-12-18T05:21:23;22.23;;;11.40;;
73816;SDS011;62146;53.232;-1.304;2022-12-18T05:23:49;27.70;;;12.60;;
73816;SDS011;62146;53.232;-1.304;2022-12-18T05:26:16;25.90;;;11.97;;
73816;SDS011;62146;53.232;-1.304;2022-12-18T05:28:44;27.25;;;12.30;;
73816;SDS011;62146;53.232;-1.304;2022-12-18T05:31:12;27.88;;;12.18;;
73816;SDS011;62146;53.232;-1.304;2022-12-18T05:33:39;28.67;;;12.23;;
73816;SDS011;62146;53.232;-1.304;2022-12-18T05:36:07;27.90;;;13.20;;
73816;SDS011;62146;53.232;-1.304;2022-12-18T05:38:36;25.37;;;12.43;;
73816;SDS011;62146;53.232;-1.304;2022-12-18T05:41:03;27.83;;;12.65;;
73816;SDS011;62146;53.232;-1.304;2022-12-18T05:43:31;30.30;;;13.05;;
73816;SDS011;62146;53.232;-1.304;2022-12-18T05:46:02;31.95;;;12.85;;
73816;SDS011;62146;53.232;-1.304;2022-12-18T05:48:38;29.38;;;11.77;;
73816;SDS011;62146;53.232;-1.304;2022-12-18T05:51:09;27.03;;;12.37;;
73816;SDS011;62146;53.232;-1.304;2022-12-18T05:53:37;30.13;;;13.73;;
73816;SDS011;62146;53.232;-1.304;2022-12-18T05:56:06;28.92;;;13.50;;
73816;SDS011;62146;53.232;-1.304;2022-12-18T05:58:35;32.00;;;14.13;;
73816;SDS011;62146;53.232;-1.304;2022-12-18T06:01:09;30.67;;;14.30;;
73816;SDS011;62146;53.232;-1.304;2022-12-18T06:03:37;29.67;;;13.60;;
73816;SDS011;62146;53.232;-1.304;2022-12-18T06:06:26;29.92;;;13.45;;
73816;SDS011;62146;53.232;-1.304;2022-12-18T06:08:54;32.03;;;13.55;;
73816;SDS011;62146;53.232;-1.304;2022-12-18T06:11:22;31.33;;;13.02;;
73816;SDS011;62146;53.232;-1.304;2022-12-18T06:13:51;32.95;;;13.95;;
73816;SDS011;62146;53.232;-1.304;2022-12-18T06:16:24;31.97;;;14.47;;
73816;SDS011;62146;53.232;-1.304;2022-12-18T06:18:52;33.13;;;14.55;;
73816;SDS011;62146;53.232;-1.304;2022-12-18T06:21:19;35.75;;;14.82;;
73816;SDS011;62146;53.232;-1.304;2022-12-18T06:23:45;29.67;;;13.23;;
73816;SDS011;62146;53.232;-1.304;2022-12-18T06:26:12;28.52;;;13.90;;
73816;SDS011;62146;53.232;-1.304;2022-12-18T06:28:39;33.00;;;14.93;;
73816;SDS011;62146;53.232;-1.304;2022-12-18T06:31:07;32.38;;;14.30;;
73816;SDS011;62146;53.232;-1.304;2022-12-18T06:33:34;29.38;;;13.75;;
73816;SDS011;62146;53.232;-1.304;2022-12-18T06:38:33;37.35;;;15.55;;
73816;SDS011;62146;53.232;-1.304;2022-12-18T06:41:00;33.10;;;15.60;;
73816;SDS011;62146;53.232;-1.304;2022-12-18T06:43:32;32.15;;;14.52;;
73816;SDS011;62146;53.232;-1.304;2022-12-18T06:45:59;37.60;;;16.40;;
73816;SDS011;62146;53.232;-1.304;2022-12-18T06:48:27;35.92;;;16.02;;
73816;SDS011;62146;53.232;-1.304;2022-12-18T06:50:54;36.08;;;16.00;;
73816;SDS011;62146;53.232;-1.304;2022-12-18T06:53:20;35.83;;;15.70;;
73816;SDS011;62146;53.232;-1.304;2022-12-18T06:55:47;38.47;;;15.30;;
73816;SDS011;62146;53.232;-1.304;2022-12-18T06:58:14;35.08;;;15.43;;
73816;SDS011;62146;53.232;-1.304;2022-12-18T07:00:40;38.63;;;15.70;;
73816;SDS011;62146;53.232;-1.304;2022-12-18T07:03:08;30.45;;;14.32;;
73816;SDS011;62146;53.232;-1.304;2022-12-18T07:05:34;36.60;;;15.90;;
73816;SDS011;62146;53.232;-1.304;2022-12-18T07:08:06;34.80;;;15.52;;
73816;SDS011;62146;53.232;-1.304;2022-12-18T07:10:33;33.83;;;14.95;;
73816;SDS011;62146;53.232;-1.304;2022-12-18T07:13:00;36.47;;;15.18;;
73816;SDS011;62146;53.232;-1.304;2022-12-18T07:15:26;35.90;;;15.63;;
73816;SDS011;62146;53.232;-1.304;2022-12-18T07:17:53;35.43;;;15.90;;
73816;SDS011;62146;53.232;-1.304;2022-12-18T07:20:20;39.15;;;16.77;;
73816;SDS011;62146;53.232;-1.304;2022-12-18T07:22:46;38.22;;;16.63;;
73816;SDS011;62146;53.232;-1.304;2022-12-18T07:25:21;35.10;;;14.82;;
73816;SDS011;62146;53.232;-1.304;2022-12-18T07:27:47;37.60;;;15.38;;
73816;SDS011;62146;53.232;-1.304;2022-12-18T07:30:14;34.67;;;14.53;;
73816;SDS011;62146;53.232;-1.304;2022-12-18T07:32:40;36.75;;;15.85;;
73816;SDS011;62146;53.232;-1.304;2022-12-18T07:35:07;38.28;;;17.20;;
73816;SDS011;62146;53.232;-1.304;2022-12-18T07:37:34;35.63;;;15.82;;
73816;SDS011;62146;53.232;-1.304;2022-12-18T07:40:00;38.17;;;14.85;;
73816;SDS011;62146;53.232;-1.304;2022-12-18T07:42:27;36.53;;;15.13;;
73816;SDS011;62146;53.232;-1.304;2022-12-18T07:44:56;37.63;;;15.05;;
73816;SDS011;62146;53.232;-1.304;2022-12-18T07:47:24;35.40;;;13.80;;
73816;SDS011;62146;53.232;-1.304;2022-12-18T07:49:52;36.35;;;15.23;;
73816;SDS011;62146;53.232;-1.304;2022-12-18T07:52:18;37.53;;;15.65;;
73816;SDS011;62146;53.232;-1.304;2022-12-18T07:54:51;36.63;;;15.03;;
73816;SDS011;62146;53.232;-1.304;2022-12-18T07:57:17;37.03;;;15.00;;
73816;SDS011;62146;53.232;-1.304;2022-12-18T08:00:04;34.10;;;14.60;;
73816;SDS011;62146;53.232;-1.304;2022-12-18T08:02:31;37.17;;;15.60;;
73816;SDS011;62146;53.232;-1.304;2022-12-18T08:04:58;38.50;;;15.27;;
73816;SDS011;62146;53.232;-1.304;2022-12-18T08:07:24;37.33;;;15.20;;
73816;SDS011;62146;53.232;-1.304;2022-12-18T08:09:51;35.80;;;14.70;;
73816;SDS011;62146;53.232;-1.304;2022-12-18T08:12:17;36.55;;;15.27;;
73816;SDS011;62146;53.232;-1.304;2022-12-18T08:14:44;36.80;;;14.77;;
73816;SDS011;62146;53.232;-1.304;2022-12-18T08:17:10;35.30;;;13.82;;
73816;SDS011;62146;53.232;-1.304;2022-12-18T08:19:37;34.83;;;14.73;;
73816;SDS011;62146;53.232;-1.304;2022-12-18T08:22:03;34.70;;;14.68;;
73816;SDS011;62146;53.232;-1.304;2022-12-18T08:24:30;34.65;;;15.30;;
73816;SDS011;62146;53.232;-1.304;2022-12-18T08:26:56;39.67;;;16.08;;
73816;SDS011;62146;53.232;-1.304;2022-12-18T08:29:43;37.72;;;15.77;;
73816;SDS011;62146;53.232;-1.304;2022-12-18T08:32:10;37.80;;;15.50;;
73816;SDS011;62146;53.232;-1.304;2022-12-18T08:34:36;32.78;;;14.48;;
73816;SDS011;62146;53.232;-1.304;2022-12-18T08:37:03;36.65;;;14.77;;
73816;SDS011;62146;53.232;-1.304;2022-12-18T08:39:29;35.00;;;14.07;;
73816;SDS011;62146;53.232;-1.304;2022-12-18T08:41:56;33.65;;;14.07;;
73816;SDS011;62146;53.232;-1.304;2022-12-18T08:44:41;35.37;;;14.63;;
73816;SDS011;62146;53.232;-1.304;2022-12-18T08:47:07;34.28;;;13.60;;
73816;SDS011;62146;53.232;-1.304;2022-12-18T08:49:34;41.80;;;15.68;;
73816;SDS011;62146;53.232;-1.304;2022-12-18T08:52:01;37.42;;;15.45;;
73816;SDS011;62146;53.232;-1.304;2022-12-18T08:54:28;38.42;;;16.23;;
73816;SDS011;62146;53.232;-1.304;2022-12-18T08:56:55;37.53;;;15.57;;
73816;SDS011;62146;53.232;-1.304;2022-12-18T08:59:22;41.60;;;16.70;;
73816;SDS011;62146;53.232;-1.304;2022-12-18T09:01:49;41.42;;;16.10;;
73816;SDS011;62146;53.232;-1.304;2022-12-18T09:04:16;46.75;;;17.92;;
73816;SDS011;62146;53.232;-1.304;2022-12-18T09:06:43;46.00;;;16.80;;
73816;SDS011;62146;53.232;-1.304;2022-12-18T09:09:09;41.83;;;16.20;;
73816;SDS011;62146;53.232;-1.304;2022-12-18T09:11:37;40.58;;;15.57;;
73816;SDS011;62146;53.232;-1.304;2022-12-18T09:14:04;43.55;;;17.55;;
73816;SDS011;62146;53.232;-1.304;2022-12-18T09:16:32;44.05;;;17.55;;
73816;SDS011;62146;53.232;-1.304;2022-12-18T09:19:02;41.63;;;16.75;;
73816;SDS011;62146;53.232;-1.304;2022-12-18T09:21:31;46.80;;;17.57;;
73816;SDS011;62146;53.232;-1.304;2022-12-18T09:24:02;46.25;;;17.92;;
73816;SDS011;62146;53.232;-1.304;2022-12-18T09:26:33;43.20;;;17.40;;
73816;SDS011;62146;53.232;-1.304;2022-12-18T09:29:00;43.30;;;16.58;;
73816;SDS011;62146;53.232;-1.304;2022-12-18T09:31:26;46.75;;;18.05;;
73816;SDS011;62146;53.232;-1.304;2022-12-18T09:33:54;46.50;;;16.67;;
73816;SDS011;62146;53.232;-1.304;2022-12-18T09:36:22;40.33;;;16.23;;
73816;SDS011;62146;53.232;-1.304;2022-12-18T09:38:48;43.03;;;16.10;;
73816;SDS011;62146;53.232;-1.304;2022-12-18T09:43:49;44.03;;;16.08;;
73816;SDS011;62146;53.232;-1.304;2022-12-18T09:46:19;38.60;;;14.63;;
73816;SDS011;62146;53.232;-1.304;2022-12-18T09:49:00;43.42;;;15.88;;
73816;SDS011;62146;53.232;-1.304;2022-12-18T09:51:33;38.08;;;15.27;;
73816;SDS011;62146;53.232;-1.304;2022-12-18T09:54:07;40.60;;;15.90;;
73816;SDS011;62146;53.232;-1.304;2022-12-18T09:56:40;39.70;;;15.80;;
73816;SDS011;62146;53.232;-1.304;2022-12-18T09:59:43;38.27;;;15.27;;
73816;SDS011;62146;53.232;-1.304;2022-12-18T10:02:20;37.53;;;14.63;;
73816;SDS011;62146;53.232;-1.304;2022-12-18T10:05:00;37.00;;;15.15;;
73816;SDS011;62146;53.232;-1.304;2022-12-18T10:07:38;38.90;;;14.68;;
73816;SDS011;62146;53.232;-1.304;2022-12-18T10:16:08;35.65;;;13.45;;
73816;SDS011;62146;53.232;-1.304;2022-12-18T10:21:41;38.13;;;14.35;;
73816;SDS011;62146;53.232;-1.304;2022-12-18T10:24:32;32.92;;;14.23;;
73816;SDS011;62146;53.232;-1.304;2022-12-18T10:27:08;33.20;;;13.27;;
73816;SDS011;62146;53.232;-1.304;2022-12-18T10:29:44;33.25;;;13.82;;
73816;SDS011;62146;53.232;-1.304;2022-12-18T10:32:18;32.00;;;12.77;;
73816;SDS011;62146;53.232;-1.304;2022-12-18T10:34:47;34.60;;;14.23;;
73816;SDS011;62146;53.232;-1.304;2022-12-18T10:37:25;33.50;;;14.30;;
73816;SDS011;62146;53.232;-1.304;2022-12-18T10:42:50;33.63;;;13.93;;
73816;SDS011;62146;53.232;-1.304;2022-12-18T10:45:30;37.33;;;14.90;;
73816;SDS011;62146;53.232;-1.304;2022-12-18T10:47:56;36.05;;;13.73;;
73816;SDS011;62146;53.232;-1.304;2022-12-18T10:50:28;35.35;;;14.23;;
73816;SDS011;62146;53.232;-1.304;2022-12-18T10:53:36;34.60;;;13.43;;
73816;SDS011;62146;53.232;-1.304;2022-12-18T10:56:04;33.25;;;13.93;;
73816;SDS011;62146;53.232;-1.304;2022-12-18T10:58:34;34.30;;;13.93;;
73816;SDS011;62146;53.232;-1.304;2022-12-18T11:01:03;33.13;;;14.15;;
73816;SDS011;62146;53.232;-1.304;2022-12-18T11:03:35;34.17;;;14.00;;
73816;SDS011;62146;53.232;-1.304;2022-12-18T11:06:07;30.33;;;12.97;;
73816;SDS011;62146;53.232;-1.304;2022-12-18T11:08:39;38.55;;;13.60;;
73816;SDS011;62146;53.232;-1.304;2022-12-18T11:11:14;35.17;;;14.05;;
73816;SDS011;62146;53.232;-1.304;2022-12-18T11:13:52;35.58;;;13.88;;
73816;SDS011;62146;53.232;-1.304;2022-12-18T11:16:21;30.83;;;12.63;;
73816;SDS011;62146;53.232;-1.304;2022-12-18T11:18:48;33.50;;;13.77;;
73816;SDS011;62146;53.232;-1.304;2022-12-18T11:21:14;30.52;;;13.13;;
73816;SDS011;62146;53.232;-1.304;2022-12-18T11:23:51;32.75;;;13.73;;
73816;SDS011;62146;53.232;-1.304;2022-12-18T11:26:19;30.60;;;12.95;;
73816;SDS011;62146;53.232;-1.304;2022-12-18T11:28:51;32.08;;;13.13;;
73816;SDS011;62146;53.232;-1.304;2022-12-18T11:31:33;33.13;;;13.77;;
73816;SDS011;62146;53.232;-1.304;2022-12-18T11:34:01;33.63;;;13.60;;
73816;SDS011;62146;53.232;-1.304;2022-12-18T11:36:50;31.60;;;14.13;;
73816;SDS011;62146;53.232;-1.304;2022-12-18T11:44:59;36.93;;;13.47;;
73816;SDS011;62146;53.232;-1.304;2022-12-18T11:47:49;30.58;;;12.90;;
73816;SDS011;62146;53.232;-1.304;2022-12-18T11:50:21;36.67;;;14.73;;
73816;SDS011;62146;53.232;-1.304;2022-12-18T11:52:50;28.55;;;13.00;;
73816;SDS011;62146;53.232;-1.304;2022-12-18T12:12:28;31.40;;;13.03;;
73816;SDS011;62146;53.232;-1.304;2022-12-18T12:15:21;31.55;;;14.23;;
73816;SDS011;62146;53.232;-1.304;2022-12-18T12:38:01;33.53;;;14.45;;
73816;SDS011;62146;53.232;-1.304;2022-12-18T12:40:39;30.63;;;13.57;;
73816;SDS011;62146;53.232;-1.304;2022-12-18T12:43:35;32.25;;;14.50;;
73816;SDS011;62146;53.232;-1.304;2022-12-18T12:46:17;31.38;;;14.05;;
73816;SDS011;62146;53.232;-1.304;2022-12-18T12:51:25;35.03;;;14.75;;
73816;SDS011;62146;53.232;-1.304;2022-12-18T12:53:58;34.57;;;14.40;;
73816;SDS011;62146;53.232;-1.304;2022-12-18T12:56:39;34.85;;;14.60;;
73816;SDS011;62146;53.232;-1.304;2022-12-18T12:59:19;34.55;;;14.20;;
73816;SDS011;62146;53.232;-1.304;2022-12-18T13:02:06;34.97;;;14.32;;
73816;SDS011;62146;53.232;-1.304;2022-12-18T13:04:50;34.20;;;15.48;;
73816;SDS011;62146;53.232;-1.304;2022-12-18T13:07:26;38.00;;;15.83;;
73816;SDS011;62146;53.232;-1.304;2022-12-18T13:12:59;35.28;;;15.15;;
73816;SDS011;62146;53.232;-1.304;2022-12-18T13:15:47;33.35;;;14.60;;
73816;SDS011;62146;53.232;-1.304;2022-12-18T13:18:29;34.45;;;14.13;;
73816;SDS011;62146;53.232;-1.304;2022-12-18T13:23:30;33.60;;;14.82;;
73816;SDS011;62146;53.232;-1.304;2022-12-18T13:33:42;30.47;;;13.27;;
73816;SDS011;62146;53.232;-1.304;2022-12-18T13:36:33;33.72;;;14.05;;
73816;SDS011;62146;53.232;-1.304;2022-12-18T13:41:47;29.63;;;13.68;;
73816;SDS011;62146;53.232;-1.304;2022-12-18T13:44:32;29.98;;;13.98;;
73816;SDS011;62146;53.232;-1.304;2022-12-18T13:47:25;32.73;;;13.80;;
73816;SDS011;62146;53.232;-1.304;2022-12-18T13:49:57;31.77;;;14.45;;
73816;SDS011;62146;53.232;-1.304;2022-12-18T13:52:26;34.08;;;14.43;;
73816;SDS011;62146;53.232;-1.304;2022-12-18T13:54:55;31.40;;;13.75;;
73816;SDS011;62146;53.232;-1.304;2022-12-18T13:57:31;28.98;;;12.73;;
73816;SDS011;62146;53.232;-1.304;2022-12-18T14:00:46;32.03;;;13.63;;
73816;SDS011;62146;53.232;-1.304;2022-12-18T14:02:50;32.13;;;14.02;;
73816;SDS011;62146;53.232;-1.304;2022-12-18T14:05:52;29.95;;;13.48;;
73816;SDS011;62146;53.232;-1.304;2022-12-18T14:08:14;29.98;;;13.13;;
73816;SDS011;62146;53.232;-1.304;2022-12-18T14:10:45;31.02;;;13.10;;
73816;SDS011;62146;53.232;-1.304;2022-12-18T14:13:23;30.80;;;13.77;;
73816;SDS011;62146;53.232;-1.304;2022-12-18T14:15:50;31.65;;;13.88;;
73816;SDS011;62146;53.232;-1.304;2022-12-18T14:20:47;27.35;;;13.07;;
73816;SDS011;62146;53.232;-1.304;2022-12-18T14:23:38;28.75;;;13.23;;
73816;SDS011;62146;53.232;-1.304;2022-12-18T14:28:46;32.00;;;14.38;;
73816;SDS011;62146;53.232;-1.304;2022-12-18T14:31:21;30.48;;;13.30;;
73816;SDS011;62146;53.232;-1.304;2022-12-18T14:33:49;32.28;;;13.00;;
73816;SDS011;62146;53.232;-1.304;2022-12-18T14:36:18;30.67;;;13.38;;
73816;SDS011;62146;53.232;-1.304;2022-12-18T14:38:54;28.60;;;13.37;;
73816;SDS011;62146;53.232;-1.304;2022-12-18T14:41:22;30.65;;;13.52;;
73816;SDS011;62146;53.232;-1.304;2022-12-18T14:43:51;28.35;;;13.07;;
73816;SDS011;62146;53.232;-1.304;2022-12-18T14:49:00;30.33;;;13.00;;
73816;SDS011;62146;53.232;-1.304;2022-12-18T14:51:30;29.07;;;13.27;;
73816;SDS011;62146;53.232;-1.304;2022-12-18T14:54:00;31.92;;;13.60;;
73816;SDS011;62146;53.232;-1.304;2022-12-18T14:56:34;31.65;;;14.00;;
73816;SDS011;62146;53.232;-1.304;2022-12-18T14:59:13;28.55;;;13.38;;
73816;SDS011;62146;53.232;-1.304;2022-12-18T15:02:12;31.42;;;14.20;;
73816;SDS011;62146;53.232;-1.304;2022-12-18T15:05:03;32.20;;;14.30;;
73816;SDS011;62146;53.232;-1.304;2022-12-18T15:07:50;32.50;;;15.10;;
73816;SDS011;62146;53.232;-1.304;2022-12-18T15:13:20;30.13;;;14.10;;
73816;SDS011;62146;53.232;-1.304;2022-12-18T15:15:50;29.10;;;13.65;;
73816;SDS011;62146;53.232;-1.304;2022-12-18T15:18:19;30.10;;;13.40;;
73816;SDS011;62146;53.232;-1.304;2022-12-18T15:20:58;28.50;;;13.93;;
73816;SDS011;62146;53.232;-1.304;2022-12-18T15:23:46;32.22;;;13.85;;
73816;SDS011;62146;53.232;-1.304;2022-12-18T15:26:16;33.42;;;14.48;;
73816;SDS011;62146;53.232;-1.304;2022-12-18T15:31:21;32.40;;;15.07;;
73816;SDS011;62146;53.232;-1.304;2022-12-18T15:36:20;28.95;;;14.13;;
73816;SDS011;62146;53.232;-1.304;2022-12-18T15:38:52;29.67;;;14.18;;
73816;SDS011;62146;53.232;-1.304;2022-12-18T15:41:30;30.45;;;14.35;;
73816;SDS011;62146;53.232;-1.304;2022-12-18T15:44:02;27.27;;;13.70;;
73816;SDS011;62146;53.232;-1.304;2022-12-18T15:46:29;28.88;;;13.68;;
73816;SDS011;62146;53.232;-1.304;2022-12-18T15:48:57;25.83;;;12.82;;
73816;SDS011;62146;53.232;-1.304;2022-12-18T15:51:28;28.50;;;13.15;;
73816;SDS011;62146;53.232;-1.304;2022-12-18T15:53:58;28.50;;;13.30;;
73816;SDS011;62146;53.232;-1.304;2022-12-18T15:56:27;29.13;;;13.67;;
73816;SDS011;62146;53.232;-1.304;2022-12-18T15:59:14;24.85;;;12.00;;
73816;SDS011;62146;53.232;-1.304;2022-12-18T16:01:51;27.52;;;13.57;;
73816;SDS011;62146;53.232;-1.304;2022-12-18T16:04:21;26.52;;;12.55;;
73816;SDS011;62146;53.232;-1.304;2022-12-18T16:06:49;27.13;;;13.05;;
73816;SDS011;62146;53.232;-1.304;2022-12-18T16:09:37;25.07;;;12.57;;
73816;SDS011;62146;53.232;-1.304;2022-12-18T16:12:05;24.98;;;12.77;;
73816;SDS011;62146;53.232;-1.304;2022-12-18T16:14:32;25.65;;;13.57;;
73816;SDS011;62146;53.232;-1.304;2022-12-18T16:17:00;27.58;;;12.80;;
73816;SDS011;62146;53.232;-1.304;2022-12-18T16:19:28;26.80;;;13.13;;
73816;SDS011;62146;53.232;-1.304;2022-12-18T16:21:56;23.47;;;12.67;;
73816;SDS011;62146;53.232;-1.304;2022-12-18T16:24:24;24.17;;;12.90;;
73816;SDS011;62146;53.232;-1.304;2022-12-18T16:26:52;25.17;;;12.52;;
73816;SDS011;62146;53.232;-1.304;2022-12-18T16:29:19;24.10;;;12.98;;
73816;SDS011;62146;53.232;-1.304;2022-12-18T16:31:57;25.88;;;13.02;;
73816;SDS011;62146;53.232;-1.304;2022-12-18T16:34:28;24.10;;;12.47;;
73816;SDS011;62146;53.232;-1.304;2022-12-18T16:37:01;24.02;;;12.45;;
73816;SDS011;62146;53.232;-1.304;2022-12-18T16:39:33;23.52;;;12.93;;